createdAt,value
2018-07-24T00:00:56.936Z,37.98
2018-07-24T00:03:27.460Z,37.40
2018-07-24T00:05:59.313Z,37.45
2018-07-24T00:08:29.698Z,38.02
2018-07-24T00:11:00.704Z,38.21
2018-07-24T00:13:32.099Z,38.43
2018-07-24T00:16:02.678Z,37.87
2018-07-24T00:18:33.142Z,37.95
2018-07-24T00:21:04.133Z,38.47
2018-07-24T00:23:34.923Z,37.53
2018-07-24T00:26:05.809Z,37.61
2018-07-24T00:28:37.533Z,37.69
2018-07-24T00:31:09.175Z,37.84
2018-07-24T00:33:39.753Z,37.31
2018-07-24T00:36:10.023Z,37.50
2018-07-24T00:38:40.598Z,38.20
2018-07-24T00:41:11.138Z,38.21
2018-07-24T00:43:41.760Z,38.71
2018-07-24T00:46:12.805Z,37.88
2018-07-24T00:48:44.152Z,39.02
2018-07-24T00:51:15.498Z,38.16
2018-07-24T00:53:45.806Z,38.58
2018-07-24T00:56:17.289Z,38.30
2018-07-24T00:58:49.619Z,38.81
2018-07-24T01:01:20.112Z,38.63
2018-07-24T01:03:50.688Z,39.30
2018-07-24T01:06:21.384Z,38.73
2018-07-24T01:08:52.922Z,38.65
2018-07-24T01:11:27.165Z,39.45
2018-07-24T01:13:57.765Z,40.05
2018-07-24T01:16:28.312Z,39.66
2018-07-24T01:19:00.868Z,39.56
2018-07-24T01:21:31.857Z,39.79
2018-07-24T01:24:02.773Z,40.20
2018-07-24T01:26:33.351Z,40.86
2018-07-24T01:29:03.735Z,39.91
2018-07-24T01:31:34.263Z,40.38
2018-07-24T01:34:04.826Z,40.12
2018-07-24T01:36:37.157Z,40.72
2018-07-24T01:39:10.378Z,41.32
2018-07-24T01:41:42.549Z,41.24
2018-07-24T01:44:13.733Z,40.99
2018-07-24T01:46:45.185Z,40.83
2018-07-24T01:49:15.698Z,40.97
2018-07-24T01:51:46.662Z,41.13
2018-07-24T01:54:17.182Z,40.88
2018-07-24T01:56:50.943Z,41.60
2018-07-24T01:59:22.139Z,41.83
2018-07-24T02:01:52.627Z,41.83
2018-07-24T02:04:23.583Z,41.20
2018-07-24T02:06:54.191Z,41.32
2018-07-24T02:09:24.683Z,41.94
2018-07-24T02:11:55.511Z,41.68
2018-07-24T02:14:26.027Z,41.93
2018-07-24T02:16:56.599Z,42.53
2018-07-24T02:19:27.093Z,42.02
2018-07-24T02:21:57.633Z,42.31
2018-07-24T02:24:28.623Z,41.95
2018-07-24T02:26:59.190Z,42.38
2018-07-24T02:29:29.721Z,42.50
2018-07-24T02:32:00.295Z,42.73
2018-07-24T02:34:31.390Z,42.03
2018-07-24T02:37:02.136Z,42.41
2018-07-24T02:39:32.653Z,41.85
2018-07-24T02:42:03.132Z,41.78
2018-07-24T02:44:35.223Z,42.66
2018-07-24T02:47:05.713Z,42.71
2018-07-24T02:49:36.792Z,42.91
2018-07-24T02:52:08.268Z,42.17
2018-07-24T02:54:43.259Z,42.75
2018-07-24T02:57:19.124Z,42.09
2018-07-24T02:59:49.659Z,42.47
2018-07-24T03:02:20.256Z,42.06
2018-07-24T03:04:50.817Z,43.06
2018-07-24T03:07:21.363Z,42.41
2018-07-24T03:09:52.312Z,42.46
2018-07-24T03:12:23.700Z,42.94
2018-07-24T03:14:54.113Z,43.09
2018-07-24T03:17:25.324Z,42.75
2018-07-24T03:19:55.798Z,42.89
2018-07-24T03:22:26.329Z,42.54
2018-07-24T03:24:56.963Z,42.59
2018-07-24T03:27:27.506Z,42.79
2018-07-24T03:29:58.037Z,43.33
2018-07-24T03:32:28.601Z,43.08
2018-07-24T03:34:59.090Z,42.65
2018-07-24T03:37:30.464Z,42.65
2018-07-24T03:40:01.181Z,42.84
2018-07-24T03:42:32.028Z,42.99
2018-07-24T03:45:05.481Z,42.52
2018-07-24T03:47:35.954Z,42.49
2018-07-24T03:50:06.511Z,42.67
2018-07-24T03:52:37.052Z,42.60
2018-07-24T03:55:10.575Z,42.81
2018-07-24T03:57:42.118Z,43.48
2018-07-24T04:00:20.563Z,42.43
2018-07-24T04:02:50.888Z,43.31
2018-07-24T04:05:21.194Z,43.30
2018-07-24T04:07:52.598Z,42.46
2018-07-24T04:10:23.677Z,42.60
2018-07-24T04:12:54.202Z,41.95
2018-07-24T04:15:24.742Z,42.25
2018-07-24T04:17:55.244Z,40.90
2018-07-24T04:20:25.807Z,40.84
2018-07-24T04:22:56.392Z,39.49
2018-07-24T04:25:26.988Z,39.67
2018-07-24T04:27:58.173Z,38.60
2018-07-24T04:30:30.285Z,38.72
2018-07-24T04:33:00.769Z,37.88
2018-07-24T04:35:31.329Z,36.73
2018-07-24T04:38:02.233Z,36.29
2018-07-24T04:40:33.479Z,36.68
2018-07-24T04:43:04.076Z,35.45
2018-07-24T04:45:34.594Z,35.38
2018-07-24T04:48:05.080Z,35.04
2018-07-24T04:50:35.563Z,34.53
2018-07-24T04:53:06.638Z,34.29
2018-07-24T04:55:37.176Z,33.59
2018-07-24T04:58:09.557Z,33.03
2018-07-24T05:00:40.395Z,32.55
2018-07-24T05:03:10.951Z,31.84
2018-07-24T05:05:42.585Z,32.55
2018-07-24T05:08:13.412Z,32.38
2018-07-24T05:10:44.028Z,31.34
2018-07-24T05:13:14.715Z,30.93
2018-07-24T05:15:45.861Z,30.99
2018-07-24T05:18:16.433Z,30.58
2018-07-24T05:20:47.366Z,31.25
2018-07-24T05:23:17.832Z,30.71
2018-07-24T05:25:48.458Z,29.54
2018-07-24T05:28:20.554Z,29.80
2018-07-24T05:30:51.088Z,29.32
2018-07-24T05:33:21.558Z,29.47
2018-07-24T05:35:53.582Z,29.14
2018-07-24T05:38:24.759Z,28.41
2018-07-24T05:40:55.364Z,28.65
2018-07-24T05:43:25.860Z,28.40
2018-07-24T05:45:56.393Z,28.82
2018-07-24T05:48:27.244Z,27.61
2018-07-24T05:50:58.385Z,27.40
2018-07-24T05:53:29.762Z,28.10
2018-07-24T05:56:00.867Z,26.75
2018-07-24T05:58:31.461Z,27.47
2018-07-24T06:01:01.959Z,27.56
2018-07-24T06:03:32.752Z,26.51
2018-07-24T06:06:03.327Z,26.48
2018-07-24T06:08:34.460Z,26.89
2018-07-24T06:11:04.971Z,26.20
2018-07-24T06:13:36.183Z,25.84
2018-07-24T06:16:08.475Z,25.06
2018-07-24T06:18:39.049Z,25.66
2018-07-24T06:21:10.393Z,25.76
2018-07-24T06:23:41.752Z,24.85
2018-07-24T06:26:14.281Z,24.08
2018-07-24T06:28:45.008Z,24.19
2018-07-24T06:31:16.418Z,23.85
2018-07-24T06:33:47.949Z,23.46
2018-07-24T06:36:18.461Z,23.72
2018-07-24T06:38:49.979Z,23.42
2018-07-24T06:41:21.431Z,23.33
2018-07-24T06:43:53.152Z,22.45
2018-07-24T06:46:25.312Z,22.74
2018-07-24T06:49:00.389Z,21.65
2018-07-24T06:51:43.587Z,22.05
2018-07-24T06:54:17.676Z,21.45
2018-07-24T06:56:49.025Z,20.76
2018-07-24T06:59:21.197Z,20.94
2018-07-24T07:01:54.229Z,20.77
2018-07-24T07:04:28.097Z,20.08
2018-07-24T07:07:01.023Z,19.86
2018-07-24T07:09:33.850Z,20.41
2018-07-24T07:12:07.653Z,19.75
2018-07-24T07:14:39.673Z,20.19
2018-07-24T07:17:11.069Z,20.64
2018-07-24T07:19:43.660Z,20.60
2018-07-24T07:22:16.247Z,19.71
2018-07-24T07:24:47.919Z,19.65
2018-07-24T07:27:21.893Z,19.70
2018-07-24T07:29:53.404Z,19.62
2018-07-24T07:32:28.641Z,19.61
2018-07-24T07:35:00.136Z,19.19
2018-07-24T07:37:40.150Z,19.70
2018-07-24T07:40:11.934Z,19.63
2018-07-24T07:42:44.254Z,19.13
2018-07-24T07:45:17.515Z,19.82
2018-07-24T07:47:48.988Z,18.70
2018-07-24T07:50:20.463Z,19.00
2018-07-24T07:52:58.503Z,18.27
2018-07-24T07:55:29.962Z,18.68
2018-07-24T07:58:04.874Z,18.72
2018-07-24T08:00:38.750Z,18.63
2018-07-24T08:03:10.364Z,18.05
2018-07-24T08:05:43.535Z,17.70
2018-07-24T08:08:14.897Z,17.69
2018-07-24T08:10:47.554Z,17.58
2018-07-24T08:13:19.142Z,17.17
2018-07-24T08:15:50.602Z,16.58
2018-07-24T08:18:23.030Z,17.43
2018-07-24T08:20:55.750Z,16.52
2018-07-24T08:23:28.604Z,17.01
2018-07-24T08:26:02.986Z,16.62
2018-07-24T08:28:37.147Z,15.69
2018-07-24T08:31:10.524Z,16.17
2018-07-24T08:33:42.706Z,16.74
2018-07-24T08:36:16.905Z,16.78
2018-07-24T08:38:50.191Z,16.58
2018-07-24T08:41:24.689Z,16.67
2018-07-24T08:43:57.069Z,16.47
2018-07-24T08:46:30.903Z,16.51
2018-07-24T08:49:02.363Z,16.20
2018-07-24T08:51:36.309Z,16.17
2018-07-24T08:54:07.936Z,15.88
2018-07-24T08:56:41.518Z,16.48
2018-07-24T08:59:15.081Z,15.84
2018-07-24T09:01:46.562Z,16.26
2018-07-24T09:04:19.679Z,16.47
2018-07-24T09:06:51.123Z,15.83
2018-07-24T09:09:22.480Z,16.47
2018-07-24T09:11:54.802Z,16.33
2018-07-24T09:14:26.252Z,16.27
2018-07-24T09:16:59.199Z,17.07
2018-07-24T09:19:32.899Z,16.46
2018-07-24T09:24:27.856Z,16.90
2018-07-24T09:27:00.180Z,16.06
2018-07-24T09:29:32.873Z,16.44
2018-07-24T09:32:05.647Z,15.56
2018-07-24T09:34:37.240Z,16.04
2018-07-24T09:37:08.804Z,15.15
2018-07-24T09:39:41.517Z,15.93
2018-07-24T09:42:13.015Z,15.84
2018-07-24T09:44:46.548Z,15.37
2018-07-24T09:47:18.979Z,16.19
2018-07-24T09:49:52.538Z,15.87
2018-07-24T09:52:24.383Z,15.86
2018-07-24T09:54:57.581Z,15.80
2018-07-24T09:57:29.057Z,15.72
2018-07-24T10:00:01.046Z,14.93
2018-07-24T10:02:33.065Z,15.20
2018-07-24T10:05:04.510Z,15.29
2018-07-24T10:07:37.910Z,16.01
2018-07-24T10:10:10.024Z,15.41
2018-07-24T10:12:43.670Z,15.12
2018-07-24T10:15:21.385Z,16.00
2018-07-24T10:17:56.405Z,15.42
2018-07-24T10:20:30.717Z,15.29
2018-07-24T10:23:03.386Z,15.19
2018-07-24T10:25:41.620Z,15.16
2018-07-24T10:28:18.001Z,15.41
2018-07-24T10:30:51.851Z,14.69
2018-07-24T10:33:24.330Z,14.86
2018-07-24T10:35:57.792Z,14.79
2018-07-24T10:38:29.711Z,15.20
2018-07-24T10:41:02.744Z,15.03
2018-07-24T10:43:35.307Z,14.66
2018-07-24T10:46:08.350Z,15.23
2018-07-24T10:48:48.195Z,13.99
2018-07-24T10:51:26.349Z,14.53
2018-07-24T10:54:03.876Z,13.98
2018-07-24T10:56:53.081Z,14.43
2018-07-24T10:59:26.553Z,14.31
2018-07-24T11:01:59.282Z,14.01
2018-07-24T11:04:44.218Z,13.85
2018-07-24T11:07:35.166Z,14.13
2018-07-24T11:10:09.810Z,14.36
2018-07-24T11:12:41.904Z,13.86
2018-07-24T11:15:17.248Z,14.18
2018-07-24T11:17:51.434Z,13.97
2018-07-24T11:20:23.290Z,14.36
2018-07-24T11:22:57.978Z,14.54
2018-07-24T11:25:32.406Z,14.42
2018-07-24T11:28:06.821Z,13.57
2018-07-24T11:30:38.697Z,14.15
2018-07-24T11:33:13.537Z,14.50
2018-07-24T11:35:45.695Z,13.77
2018-07-24T11:38:20.772Z,14.33
2018-07-24T11:40:54.520Z,13.94
2018-07-24T11:43:29.743Z,14.11
2018-07-24T11:46:03.213Z,13.66
2018-07-24T11:48:37.275Z,13.82
2018-07-24T11:51:13.064Z,13.14
2018-07-24T11:53:48.222Z,13.14
2018-07-24T11:56:20.304Z,13.63
2018-07-24T11:58:54.259Z,13.70
2018-07-24T12:01:27.394Z,13.89
2018-07-24T12:04:03.413Z,12.87
2018-07-24T12:06:37.585Z,13.11
2018-07-24T12:09:14.235Z,13.73
2018-07-24T12:12:04.198Z,12.94
2018-07-24T12:14:41.978Z,12.78
2018-07-24T12:17:17.475Z,12.69
2018-07-24T12:19:50.412Z,13.72
2018-07-24T12:22:24.158Z,12.39
2018-07-24T12:24:58.254Z,12.58
2018-07-24T12:27:31.455Z,13.06
2018-07-24T12:30:10.410Z,12.42
2018-07-24T12:32:43.340Z,12.44
2018-07-24T12:35:15.850Z,12.07
2018-07-24T12:37:50.738Z,12.35
2018-07-24T12:40:25.021Z,12.65
2018-07-24T12:42:58.038Z,11.91
2018-07-24T12:45:31.178Z,11.66
2018-07-24T12:53:35.294Z,11.67
2018-07-24T12:56:08.439Z,11.98
2018-07-24T12:58:46.285Z,11.85
2018-07-24T13:01:18.719Z,12.00
2018-07-24T13:03:59.587Z,11.24
2018-07-24T13:06:34.834Z,11.23
2018-07-24T13:09:11.958Z,12.07
2018-07-24T13:11:47.930Z,12.45
2018-07-24T13:14:22.164Z,11.78
2018-07-24T13:16:55.812Z,12.73
2018-07-24T13:19:30.701Z,12.30
2018-07-24T13:22:05.285Z,12.70
2018-07-24T13:24:40.620Z,12.18
2018-07-24T13:27:13.267Z,12.95
2018-07-24T13:29:49.101Z,12.72
2018-07-24T13:32:22.066Z,12.18
2018-07-24T13:34:53.543Z,11.60
2018-07-24T13:37:26.889Z,11.88
2018-07-24T13:40:00.466Z,12.46
2018-07-24T13:45:21.376Z,11.95
2018-07-24T13:47:54.421Z,12.12
2018-07-24T13:50:28.837Z,12.01
2018-07-24T13:53:02.095Z,11.58
2018-07-24T13:55:50.673Z,12.11
2018-07-24T13:58:25.568Z,12.27
2018-07-24T14:01:00.481Z,12.03
2018-07-24T14:03:32.859Z,12.14
2018-07-24T14:06:06.255Z,12.39
2018-07-24T14:08:39.637Z,12.04
2018-07-24T14:11:12.413Z,12.72
2018-07-24T14:13:44.827Z,12.36
2018-07-24T14:16:17.215Z,11.92
2018-07-24T14:18:50.530Z,12.50
2018-07-24T14:21:23.208Z,13.03
2018-07-24T14:23:54.235Z,13.53
2018-07-24T14:26:25.773Z,13.35
2018-07-24T14:28:56.231Z,13.31
2018-07-24T14:31:31.642Z,12.24
2018-07-24T14:34:04.199Z,12.80
2018-07-24T14:36:43.942Z,12.03
2018-07-24T14:39:16.644Z,11.61
2018-07-24T14:41:48.424Z,11.85
2018-07-24T14:44:31.389Z,12.41
2018-07-24T14:47:02.006Z,11.27
2018-07-24T14:49:35.813Z,11.64
2018-07-24T14:52:08.596Z,11.88
2018-07-24T14:54:40.056Z,11.54
2018-07-24T14:57:20.041Z,11.48
2018-07-24T14:59:58.509Z,11.53
2018-07-24T15:02:32.457Z,11.39
2018-07-24T15:08:47.713Z,11.45
2018-07-24T15:11:18.247Z,11.71
2018-07-24T15:13:52.689Z,12.33
2018-07-24T15:16:28.588Z,11.50
2018-07-24T15:19:02.186Z,11.13
2018-07-24T15:21:36.467Z,12.01
2018-07-24T15:24:11.600Z,11.67
2018-07-24T15:26:44.561Z,11.94
2018-07-24T15:29:20.303Z,11.93
2018-07-24T15:31:54.813Z,12.63
2018-07-24T15:34:29.275Z,13.13
2018-07-24T15:37:05.169Z,13.21
2018-07-24T15:39:38.790Z,12.55
2018-07-24T15:42:11.268Z,12.07
2018-07-24T15:50:14.794Z,12.51
2018-07-24T15:52:45.345Z,12.46
2018-07-24T15:55:19.005Z,12.12
2018-07-24T15:57:55.589Z,12.75
2018-07-24T16:00:27.300Z,12.64
2018-07-24T16:02:59.377Z,12.72
2018-07-24T16:05:33.240Z,11.91
2018-07-24T16:08:07.056Z,12.08
2018-07-24T16:11:10.353Z,12.00
2018-07-24T16:13:42.743Z,11.99
2018-07-24T16:16:16.641Z,11.84
2018-07-24T16:18:50.897Z,12.10
2018-07-24T16:21:21.720Z,11.60
2018-07-24T16:23:55.207Z,11.75
2018-07-24T16:26:28.302Z,11.19
2018-07-24T16:29:01.725Z,10.93
2018-07-24T16:31:32.325Z,10.64
2018-07-24T16:34:05.269Z,10.51
2018-07-24T16:36:39.409Z,11.13
2018-07-24T16:39:12.758Z,10.56
2018-07-24T16:41:47.101Z,11.31
2018-07-24T16:44:21.653Z,10.80
2018-07-24T16:46:55.472Z,10.64
2018-07-24T16:49:28.139Z,11.69
2018-07-24T16:52:01.154Z,11.66
2018-07-24T16:54:35.392Z,11.77
2018-07-24T16:57:09.316Z,12.33
2018-07-24T16:59:41.827Z,12.00
2018-07-24T17:02:14.262Z,12.12
2018-07-24T17:11:30.842Z,12.08
2018-07-24T17:14:05.270Z,11.98
2018-07-24T17:16:40.763Z,11.93
2018-07-24T17:19:14.835Z,11.94
2018-07-24T17:21:48.546Z,12.03
2018-07-24T17:24:20.522Z,11.12
2018-07-24T17:26:53.444Z,11.39
2018-07-24T17:29:29.239Z,11.16
2018-07-24T17:32:05.847Z,11.48
2018-07-24T17:34:39.487Z,11.22
2018-07-24T17:37:18.658Z,11.78
2018-07-24T17:39:51.454Z,11.43
2018-07-24T17:42:24.689Z,11.49
2018-07-24T17:44:57.076Z,11.62
2018-07-24T17:47:29.446Z,11.48
2018-07-24T17:50:01.931Z,12.48
2018-07-24T17:52:34.958Z,11.72
2018-07-24T17:55:08.433Z,12.19
2018-07-24T17:57:44.454Z,13.51
2018-07-24T18:00:19.443Z,13.53
2018-07-24T18:02:53.403Z,13.39
2018-07-24T18:08:06.349Z,14.16
2018-07-24T18:10:38.741Z,14.57
2018-07-24T18:15:43.136Z,15.48
2018-07-24T18:18:18.166Z,15.04
2018-07-24T18:20:55.451Z,16.02
2018-07-24T18:23:30.646Z,16.08
2018-07-24T18:26:07.776Z,15.74
2018-07-24T18:28:41.052Z,16.78
2018-07-24T18:31:16.323Z,16.71
2018-07-24T18:33:54.438Z,16.90
2018-07-24T18:36:26.302Z,17.14
2018-07-24T18:38:58.569Z,17.37
2018-07-24T18:41:29.220Z,17.45
2018-07-24T18:44:02.344Z,17.74
2018-07-24T18:46:34.802Z,17.42
2018-07-24T18:49:09.949Z,18.17
2018-07-24T18:51:42.289Z,18.44
2018-07-24T18:54:15.410Z,17.81
2018-07-24T18:56:47.960Z,19.33
2018-07-24T18:59:21.803Z,18.76
2018-07-24T19:01:53.731Z,20.04
2018-07-24T19:06:55.726Z,19.75
2018-07-24T19:09:30.592Z,20.63
2018-07-24T19:12:07.544Z,22.04
2018-07-24T19:14:39.991Z,22.41
2018-07-24T19:17:15.211Z,23.36
2018-07-24T19:19:48.413Z,23.10
2018-07-24T19:22:19.353Z,23.97
2018-07-24T19:24:49.964Z,24.37
2018-07-24T19:27:22.774Z,23.68
2018-07-24T19:29:56.038Z,24.07
2018-07-24T19:32:28.486Z,23.84
2018-07-24T19:35:01.421Z,23.78
2018-07-24T19:37:36.929Z,24.20
2018-07-24T19:40:09.787Z,23.91
2018-07-24T19:42:41.638Z,24.36
2018-07-24T19:45:17.519Z,24.32
2018-07-24T19:47:51.461Z,24.73
2018-07-24T19:50:28.248Z,24.28
2018-07-24T19:53:04.229Z,24.47
2018-07-24T19:55:37.677Z,25.01
2018-07-24T19:58:08.705Z,24.47
2018-07-24T20:00:39.831Z,24.98
2018-07-24T20:03:10.424Z,24.76
2018-07-24T20:05:41.483Z,24.52
2018-07-24T20:08:14.691Z,25.36
2018-07-24T20:10:46.422Z,24.80
2018-07-24T20:13:19.214Z,25.40
2018-07-24T20:15:53.797Z,24.92
2018-07-24T20:18:24.416Z,25.17
2018-07-24T20:20:55.587Z,26.22
2018-07-24T20:23:26.785Z,25.46
2018-07-24T20:25:58.715Z,26.22
2018-07-24T20:28:29.358Z,26.00
2018-07-24T20:31:00.755Z,25.77
2018-07-24T20:33:31.304Z,25.67
2018-07-24T20:36:04.571Z,25.80
2018-07-24T20:38:36.305Z,26.33
2018-07-24T20:41:08.956Z,26.27
2018-07-24T20:43:45.819Z,26.42
2018-07-24T20:46:17.680Z,26.62
2018-07-24T20:48:48.250Z,26.37
2018-07-24T20:51:18.692Z,26.29
2018-07-24T20:53:51.516Z,26.35
2018-07-24T20:56:22.206Z,26.02
2018-07-24T20:58:54.638Z,26.68
2018-07-24T21:01:25.990Z,26.02
2018-07-24T21:03:56.502Z,26.03
2018-07-24T21:06:26.863Z,26.54
2018-07-24T21:08:57.855Z,26.15
2018-07-24T21:11:28.436Z,27.05
2018-07-24T21:14:00.167Z,26.15
2018-07-24T21:16:32.295Z,26.72
2018-07-24T21:19:02.665Z,26.92
2018-07-24T21:21:35.366Z,26.24
2018-07-24T21:24:06.763Z,26.90
2018-07-24T21:26:38.098Z,26.76
2018-07-24T21:29:09.262Z,27.18
2018-07-24T21:31:41.596Z,26.73
2018-07-24T21:34:12.366Z,26.70
2018-07-24T21:36:48.369Z,27.44
2018-07-24T21:39:20.315Z,27.83
2018-07-24T21:41:59.640Z,26.96
2018-07-24T21:44:34.342Z,27.06
2018-07-24T21:47:07.402Z,27.58
2018-07-24T21:49:41.216Z,27.17
2018-07-24T21:52:13.365Z,27.58
2018-07-24T21:54:43.897Z,27.19
2018-07-24T21:57:14.717Z,27.22
2018-07-24T21:59:47.275Z,27.27
2018-07-24T22:02:19.106Z,27.90
2018-07-24T22:04:51.263Z,27.90
2018-07-24T22:07:21.799Z,27.97
2018-07-24T22:09:52.368Z,27.93
2018-07-24T22:12:24.807Z,27.78
2018-07-24T22:15:02.082Z,28.24
2018-07-24T22:17:33.268Z,28.55
2018-07-24T22:20:05.778Z,28.57
2018-07-24T22:22:38.444Z,28.43
2018-07-24T22:25:09.464Z,28.35
2018-07-24T22:27:41.641Z,27.79
2018-07-24T22:30:16.303Z,27.66
2018-07-24T22:32:48.153Z,28.40
2018-07-24T22:35:22.669Z,28.66
2018-07-24T22:37:57.105Z,29.00
2018-07-24T22:40:30.373Z,28.51
2018-07-24T22:43:04.400Z,28.78
2018-07-24T22:45:36.397Z,28.47
2018-07-24T22:48:07.588Z,28.66
2018-07-24T22:50:39.311Z,29.42
2018-07-24T22:53:10.537Z,28.82
2018-07-24T22:55:41.761Z,29.23
2018-07-24T22:58:15.460Z,29.40
2018-07-24T23:00:48.664Z,29.40
2018-07-24T23:03:19.250Z,29.46
2018-07-24T23:05:52.402Z,29.50
2018-07-24T23:08:25.117Z,29.71
2018-07-24T23:10:57.489Z,29.39
2018-07-24T23:13:29.842Z,30.36
2018-07-24T23:16:00.414Z,30.63
2018-07-24T23:18:31.839Z,30.85
2018-07-24T23:21:02.618Z,30.84
2018-07-24T23:23:33.071Z,31.04
2018-07-24T23:26:03.684Z,31.38
2018-07-24T23:28:34.705Z,31.29
2018-07-24T23:31:05.279Z,31.41
2018-07-24T23:33:35.807Z,31.41
2018-07-24T23:36:06.579Z,31.92
2018-07-24T23:38:39.558Z,31.32
2018-07-24T23:41:11.849Z,31.90
2018-07-24T23:43:42.876Z,31.92
2018-07-24T23:46:13.713Z,31.61
2018-07-24T23:48:44.608Z,31.11
2018-07-24T23:51:15.327Z,31.27
2018-07-24T23:53:48.409Z,31.75
2018-07-24T23:56:20.006Z,31.69
2018-07-24T23:58:52.052Z,31.14
